Walnut Grove, Pennsylvania
Current Conditions -  °F | °C
As of 6:56 AM on Friday 31 Oct 2014 (Local Time) from KCXY Reporting Station
Overcast Overcast  
Wind Chill: 43°   Ceiling: 5500
Heat Index: 46°   Visibility: 10mi
Dew Point: 38°   Wind: 6mph
Humidity: 73%   Direction: 100°E
Pressure: 30.01"   Gusts: NA
Location:  40.4932°N, 77.217°W
Report Text: KCXY 311056Z 10005KT 10SM OVC055 08/03 A3001 RMK AO2 SLP165 T00780033
Loading
Personal Weather Stations






























Interactive Weather Map
Tropical Storm Tracking
New forecast layout! Learn more

10-Day Weather Forecast

Advertisements
Track Severe Weather on mobile